.
WxDataArchive / Data Records for 2008-03-27
2008-03-26 March 2008 2008-03-28

Data Records for Thursday, 27 March 2008

Time	Temp	Chill	HIndex	Humid	Dewpt	 Wind 	HiWind	WindDir	Rain 	Barom 
-----	----	-----	------	-----	-----	------	------	-------	-----	----- 
00:00	42.1	42.1	42.1	59	28.8	0	1	248	0.00	29.999 
00:05	42.1	42.1	42.1	58	28.4	0	1	248	0.00	29.991 
00:10	42.2	42.2	42.2	59	28.9	0	1	248	0.00	29.988 
00:15	42.2	42.2	42.2	60	29.3	0	0	---	0.00	29.987 
00:20	42.1	42.1	42.1	59	28.8	0	0	---	0.00	29.985 
00:25	41.9	41.9	41.9	59	28.6	0	0	---	0.00	29.980 
00:30	41.8	41.8	41.8	59	28.5	0	0	---	0.00	29.977 
00:35	41.6	41.6	41.6	59	28.3	0	0	---	0.00	29.979 
00:40	41.6	41.6	41.6	60	28.8	0	0	---	0.00	29.974 
00:45	41.5	41.5	41.5	60	28.7	0	0	---	0.00	29.974 
00:50	41.6	41.6	41.6	60	28.8	0	0	---	0.00	29.974 
00:55	41.6	41.6	41.6	60	28.8	0	0	---	0.00	29.972 
01:00	41.6	41.6	41.6	61	29.2	0	0	---	0.00	29.973 
01:05	41.5	41.5	41.5	62	29.5	0	0	---	0.00	29.969 
01:10	41.3	41.3	41.3	62	29.3	0	0	---	0.00	29.971 
01:15	41.3	41.3	41.3	61	28.9	0	0	---	0.00	29.969 
01:20	41.3	41.3	41.3	62	29.3	0	0	---	0.00	29.968 
01:25	41.3	41.3	41.3	62	29.3	0	0	---	0.00	29.965 
01:30	41.3	41.3	41.3	64	30.1	0	0	---	0.00	29.967 
01:35	41.3	41.3	41.3	66	30.8	0	0	---	0.00	29.961 
01:40	41.3	41.3	41.3	65	30.4	0	0	---	0.00	29.956 
01:45	41.3	41.3	41.3	65	30.4	0	1	248	0.00	29.955 
01:50	41.5	41.5	41.5	63	29.9	0	1	248	0.00	29.950 
01:55	41.6	41.6	41.6	62	29.6	0	1	248	0.00	29.942 
02:00	41.8	41.8	41.8	61	29.4	0	0	---	0.00	29.948 
02:05	41.8	41.8	41.8	61	29.4	0	0	---	0.00	29.952 
02:10	41.8	41.8	41.8	61	29.4	0	0	---	0.00	29.952 
02:15	41.8	41.8	41.8	61	29.4	0	0	---	0.00	29.952 
02:20	41.8	41.8	41.8	61	29.4	0	1	248	0.00	29.954 
02:25	41.8	41.8	41.8	62	29.7	0	1	248	0.00	29.948 
02:30	41.9	41.9	41.9	61	29.4	1	2	248	0.00	29.942 
02:35	42.1	42.1	42.1	60	29.2	1	2	248	0.00	29.941 
02:40	42.2	42.2	42.2	59	28.9	1	3	90	0.00	29.938 
02:45	42.2	42.2	42.2	59	28.9	0	2	90	0.00	29.941 
02:50	42.2	42.2	42.2	59	28.9	1	2	90	0.00	29.939 
02:55	42.2	42.2	42.2	60	29.3	1	2	90	0.00	29.934 
03:00	42.1	42.1	42.1	61	29.6	1	3	90	0.00	29.934 
03:05	41.9	41.9	41.9	62	29.8	1	2	90	0.00	29.933 
03:10	41.8	41.8	41.8	62	29.7	0	0	---	0.00	29.932 
03:15	41.6	41.6	41.6	63	30.0	0	1	90	0.00	29.932 
03:20	41.5	41.5	41.5	64	30.2	0	1	90	0.00	29.929 
03:25	41.3	41.3	41.3	64	30.1	0	0	---	0.00	29.931 
03:30	41.3	41.3	41.3	64	30.1	1	2	90	0.00	29.922 
03:35	41.3	41.3	41.3	64	30.1	0	1	90	0.00	29.928 
03:40	41.3	41.3	41.3	64	30.1	0	1	90	0.00	29.936 
03:45	41.3	41.3	41.3	64	30.1	0	0	---	0.00	29.942 
03:50	41.2	41.2	41.2	64	30.0	0	0	---	0.00	29.944 
03:55	41.2	41.2	41.2	64	30.0	0	1	90	0.00	29.939 
04:00	41.2	41.2	41.2	64	30.0	0	1	90	0.00	29.939 
04:05	41.2	41.2	41.2	64	30.0	0	1	90	0.00	29.940 
04:10	41.2	41.2	41.2	64	30.0	0	1	90	0.00	29.941 
04:15	41.2	41.2	41.2	63	29.6	0	1	90	0.00	29.944 
04:20	41.2	41.2	41.2	63	29.6	0	1	90	0.00	29.952 
04:25	41.3	41.3	41.3	63	29.7	1	2	90	0.00	29.949 
04:30	41.5	41.5	41.5	63	29.9	1	4	90	0.00	29.943 
04:35	41.5	41.5	41.5	63	29.9	2	5	90	0.00	29.940 
04:40	41.5	41.5	41.5	64	30.2	1	5	90	0.00	29.939 
04:45	41.5	41.5	41.5	65	30.6	1	4	90	0.00	29.937 
04:50	41.3	41.3	41.3	65	30.4	1	3	22	0.00	29.939 
04:55	41.3	41.3	41.3	65	30.4	1	4	22	0.00	29.940 
05:00	41.3	41.3	41.3	63	29.7	2	4	90	0.00	29.940 
05:05	41.5	41.5	41.5	62	29.5	2	5	112	0.00	29.941 
05:10	41.6	41.6	41.6	60	28.8	1	4	112	0.00	29.942 
05:15	41.6	41.6	41.6	60	28.8	1	4	112	0.00	29.947 
05:20	41.6	41.6	41.6	59	28.3	0	1	112	0.00	29.956 
05:25	41.6	41.6	41.6	59	28.3	1	3	112	0.00	29.950 
05:30	41.6	41.6	41.6	61	29.2	1	2	112	0.00	29.954 
05:35	41.5	41.5	41.5	61	29.1	1	3	112	0.00	29.948 
05:40	41.3	41.3	41.3	62	29.3	0	1	112	0.00	29.956 
05:45	41.2	41.2	41.2	62	29.2	0	1	112	0.00	29.948 
05:50	41.2	41.2	41.2	63	29.6	0	2	112	0.00	29.952 
05:55	41.1	41.1	41.1	62	29.1	0	1	112	0.00	29.953 
06:00	41.1	41.1	41.1	63	29.5	1	3	112	0.00	29.941 
06:05	40.9	40.9	40.9	62	28.9	1	3	112	0.00	29.942 
06:10	40.9	40.9	40.9	62	28.9	1	4	112	0.00	29.942 
06:15	40.9	40.9	40.9	61	28.5	1	3	112	0.00	29.941 
06:20	40.8	40.8	40.8	62	28.8	2	5	90	0.00	29.931 
06:25	40.6	40.6	40.6	62	28.6	2	5	90	0.00	29.934 
06:30	40.5	40.5	40.5	63	28.9	2	5	112	0.00	29.928 
06:35	40.3	40.3	40.3	64	29.1	2	4	112	0.00	29.925 
06:40	40.3	40.3	40.3	64	29.1	2	3	90	0.00	29.928 
06:45	40.2	40.2	40.2	65	29.4	1	3	112	0.00	29.929 
06:50	40.2	40.2	40.2	64	29.0	1	3	112	0.00	29.928 
06:55	40.2	40.2	40.2	64	29.0	2	4	112	0.00	29.923 
07:00	40.2	40.2	40.2	64	29.0	1	4	112	0.00	29.929 
07:05	40.2	40.2	40.2	64	29.0	0	3	112	0.00	29.937 
07:10	40.2	40.2	40.2	65	29.4	0	3	112	0.00	29.935 
07:15	40.2	40.2	40.2	65	29.4	1	4	90	0.00	29.935 
07:20	40.2	40.2	40.2	65	29.4	1	3	90	0.00	29.935 
07:25	40.3	40.3	40.3	65	29.5	1	3	90	0.00	29.926 
07:30	40.2	40.2	40.2	65	29.4	0	1	90	0.00	29.941 
07:35	40.3	40.3	40.3	65	29.5	0	3	90	0.00	29.940 
07:40	40.3	40.3	40.3	65	29.5	1	3	68	0.00	29.941 
07:45	40.3	40.3	40.3	65	29.5	2	6	112	0.00	29.931 
07:50	40.2	40.2	40.2	64	29.0	1	4	45	0.00	29.933 
07:55	40.1	40.1	40.1	65	29.3	2	7	112	0.00	29.932 
08:00	39.9	39.9	39.9	66	29.5	2	5	112	0.00	29.944 
08:05	39.8	39.8	39.8	66	29.4	1	7	112	0.00	29.947 
08:10	39.8	39.8	39.8	67	29.8	2	5	22	0.00	29.946 
08:15	39.8	37.1	39.8	69	30.5	4	11	90	0.00	29.941 
08:20	39.6	36.9	39.6	73	31.7	4	12	112	0.00	29.945 
08:25	39.6	39.6	39.6	75	32.3	3	7	112	0.00	29.937 
08:30	39.6	39.6	39.6	77	33.0	3	9	112	0.00	29.938 
08:35	39.6	39.6	39.6	77	33.0	2	7	112	0.00	29.944 
08:40	39.6	36.9	39.6	77	33.0	4	13	90	0.00	29.928 
08:45	39.5	35.9	39.5	78	33.2	5	12	112	0.00	29.925 
08:50	39.5	35.9	39.5	79	33.5	5	12	112	0.00	29.930 
08:55	39.5	36.7	39.5	80	33.9	4	9	90	0.00	29.930 
09:00	39.5	36.7	39.5	81	34.2	4	9	112	0.00	29.923 
09:05	39.5	35.9	39.5	80	33.9	5	14	112	0.01	29.918 
09:10	39.6	36.0	39.6	81	34.3	5	12	112	0.00	29.914 
09:15	39.8	37.1	39.8	81	34.5	4	11	112	0.00	29.915 
09:20	39.8	37.1	39.8	79	33.8	4	13	90	0.00	29.911 
09:25	40.1	40.1	40.1	79	34.1	3	10	112	0.00	29.912 
09:30	40.2	40.2	40.2	78	33.9	3	10	45	0.00	29.916 
09:35	40.1	37.4	40.1	78	33.8	4	10	112	0.00	29.914 
09:40	40.1	36.6	40.1	77	33.5	5	12	112	0.00	29.911 
09:45	40.3	40.3	40.3	78	34.0	3	12	112	0.00	29.913 
09:50	40.5	40.5	40.5	77	33.9	3	11	112	0.00	29.901 
09:55	40.5	37.1	40.5	76	33.5	5	12	112	0.00	29.907 
10:00	40.6	37.2	40.6	73	32.6	5	13	90	0.00	29.910 
10:05	40.8	37.4	40.8	73	32.8	5	13	112	0.00	29.903 
10:10	40.8	38.2	40.8	72	32.5	4	9	112	0.00	29.903 
10:15	41.1	38.6	41.1	71	32.4	4	9	112	0.00	29.902 
10:20	41.1	38.6	41.1	69	31.7	4	11	112	0.00	29.907 
10:25	41.2	41.2	41.2	69	31.8	3	7	112	0.00	29.917 
10:30	41.2	38.7	41.2	69	31.8	4	13	112	0.00	29.910 
10:35	41.2	37.2	41.2	68	31.5	6	12	112	0.00	29.901 
10:40	41.5	38.2	41.5	65	30.6	5	14	112	0.00	29.913 
10:45	41.8	41.8	41.8	66	31.3	3	10	112	0.00	29.912 
10:50	41.9	38.0	41.9	66	31.4	6	12	112	0.00	29.906 
10:55	42.1	38.9	42.1	67	31.9	5	12	112	0.00	29.899 
11:00	42.2	39.1	42.2	66	31.7	5	15	112	0.00	29.897 
11:05	42.2	38.4	42.2	64	30.9	6	12	112	0.00	29.895 
11:10	42.3	39.2	42.3	66	31.8	5	14	112	0.00	29.888 
11:15	42.6	40.3	42.6	65	31.7	4	11	112	0.00	29.889 
11:20	42.8	39.8	42.8	65	31.9	5	13	112	0.00	29.897 
11:25	42.8	40.6	42.8	64	31.5	4	10	112	0.00	29.896 
11:30	42.8	42.8	42.8	64	31.5	3	10	68	0.00	29.888 
11:35	42.8	39.8	42.8	65	31.9	5	12	112	0.00	29.886 
11:40	42.6	38.9	42.6	65	31.7	6	12	112	0.00	29.880 
11:45	42.6	39.5	42.6	65	31.7	5	14	112	0.00	29.872 
11:50	42.8	39.8	42.8	65	31.9	5	11	112	0.00	29.871 
11:55	42.8	39.8	42.8	66	32.2	5	13	112	0.00	29.872 
12:00	42.9	39.9	42.9	66	32.3	5	12	112	0.00	29.873 
12:05	42.8	39.1	42.8	65	31.9	6	14	112	0.00	29.868 
12:10	42.9	40.7	42.9	65	32.0	4	12	112	0.00	29.869 
12:15	42.9	40.7	42.9	66	32.3	4	13	112	0.00	29.867 
12:20	43.1	40.1	43.1	65	32.1	5	14	22	0.00	29.867 
12:25	42.8	39.1	42.8	65	31.9	6	14	112	0.00	29.864 
12:30	42.9	39.2	42.9	64	31.6	6	13	112	0.00	29.858 
12:35	42.8	38.5	42.8	64	31.5	7	15	112	0.00	29.861 
12:40	42.8	39.1	42.8	64	31.5	6	13	112	0.00	29.856 
12:45	42.8	39.1	42.8	65	31.9	6	13	112	0.00	29.857 
12:50	42.6	38.9	42.6	65	31.7	6	13	112	0.00	29.853 
12:55	42.6	38.9	42.6	66	32.0	6	15	112	0.00	29.849 
13:00	42.6	37.8	42.6	63	30.9	8	17	112	0.00	29.841 
13:05	42.6	37.8	42.6	63	30.9	8	17	112	0.00	29.837 
13:10	42.6	37.3	42.6	62	30.5	9	15	112	0.00	29.829 
13:15	42.5	37.6	42.5	62	30.4	8	17	112	0.00	29.825 
13:20	42.6	38.3	42.6	62	30.5	7	15	112	0.00	29.823 
13:25	42.5	37.6	42.5	62	30.4	8	22	112	0.00	29.829 
13:30	42.6	39.5	42.6	62	30.5	5	11	112	0.00	29.836 
13:35	42.6	38.9	42.6	63	30.9	6	13	112	0.00	29.838 
13:40	42.5	38.2	42.5	63	30.8	7	14	90	0.00	29.839 
13:45	42.3	37.9	42.3	64	31.0	7	14	112	0.00	29.840 
13:50	42.3	40.0	42.3	65	31.4	4	9	112	0.00	29.839 
13:55	42.5	40.2	42.5	65	31.6	4	10	112	0.00	29.845 
14:00	42.5	39.4	42.5	65	31.6	5	9	112	0.00	29.841 
14:05	42.3	39.2	42.3	65	31.4	5	12	112	0.00	29.841 
14:10	42.2	39.1	42.2	66	31.7	5	15	112	0.00	29.834 
14:15	42.3	40.0	42.3	66	31.8	4	11	112	0.00	29.833 
14:20	42.2	39.1	42.2	67	32.0	5	12	112	0.00	29.833 
14:25	42.2	39.1	42.2	69	32.8	5	10	112	0.00	29.836 
14:30	42.1	39.7	42.1	73	34.1	4	7	90	0.00	29.838 
14:35	41.8	41.8	41.8	73	33.8	2	10	68	0.00	29.837 
14:40	41.6	41.6	41.6	74	33.9	3	10	112	0.00	29.834 
14:45	41.5	41.5	41.5	75	34.2	3	10	112	0.00	29.832 
14:50	41.3	41.3	41.3	75	34.0	3	9	112	0.00	29.834 
14:55	41.2	41.2	41.2	76	34.2	2	10	22	0.00	29.831 
15:00	40.9	38.4	40.9	77	34.3	4	11	68	0.00	29.823 
15:05	40.6	40.6	40.6	80	34.9	3	10	45	0.00	29.823 
15:10	40.3	40.3	40.3	82	35.2	3	6	45	0.00	29.820 
15:15	39.9	39.9	39.9	84	35.5	3	6	112	0.01	29.813 
15:20	39.5	39.5	39.5	85	35.4	3	10	68	0.00	29.809 
15:25	39.3	39.3	39.3	87	35.8	2	7	90	0.00	29.808 
15:30	38.9	38.9	38.9	88	35.7	2	5	22	0.02	29.825 
15:35	38.8	38.8	38.8	88	35.6	3	6	45	0.04	29.822 
15:40	38.5	38.5	38.5	89	35.5	2	9	90	0.02	29.832 
15:45	38.3	38.3	38.3	90	35.6	1	4	68	0.02	29.831 
15:50	38.2	38.2	38.2	91	35.8	2	7	90	0.03	29.827 
15:55	38.0	38.0	38.0	91	35.6	3	8	90	0.04	29.827 
16:00	37.9	34.9	37.9	92	35.8	4	9	112	0.03	29.820 
16:05	37.6	31.7	37.6	92	35.5	8	13	112	0.04	29.779 
16:10	37.5	32.8	37.5	93	35.7	6	12	112	0.04	29.787 
16:15	37.6	37.6	37.6	93	35.8	2	6	112	0.02	29.806 
16:20	37.6	34.5	37.6	94	36.0	4	12	112	0.01	29.797 
16:25	37.6	34.5	37.6	94	36.0	4	11	112	0.00	29.808 
16:30	37.6	37.6	37.6	94	36.0	3	9	112	0.01	29.811 
16:35	37.5	34.4	37.5	94	35.9	4	11	90	0.01	29.810 
16:40	37.3	33.3	37.3	94	35.7	5	11	112	0.01	29.797 
16:45	37.3	37.3	37.3	94	35.7	3	13	68	0.01	29.803 
16:50	37.3	37.3	37.3	94	35.7	2	6	112	0.02	29.813 
16:55	37.5	37.5	37.5	94	35.9	1	6	90	0.02	29.832 
17:00	37.5	37.5	37.5	94	35.9	1	5	112	0.02	29.824 
17:05	37.3	37.3	37.3	94	35.7	3	10	112	0.02	29.809 
17:10	37.3	37.3	37.3	94	35.7	3	6	112	0.02	29.805 
17:15	37.3	37.3	37.3	95	36.0	2	5	112	0.01	29.810 
17:20	37.5	37.5	37.5	95	36.2	2	6	90	0.01	29.811 
17:25	37.5	34.4	37.5	95	36.2	4	7	112	0.02	29.794 
17:30	37.5	37.5	37.5	95	36.2	3	9	112	0.01	29.792 
17:35	37.5	37.5	37.5	95	36.2	3	9	112	0.01	29.798 
17:40	37.5	37.5	37.5	95	36.2	2	7	112	0.01	29.789 
17:45	37.5	37.5	37.5	95	36.2	3	7	112	0.00	29.802 
17:50	37.3	37.3	37.3	95	36.0	2	5	68	0.01	29.809 
17:55	37.3	37.3	37.3	95	36.0	2	7	45	0.01	29.802 
18:00	37.2	37.2	37.2	95	35.9	3	9	22	0.00	29.783 
18:05	37.2	37.2	37.2	95	35.9	2	10	90	0.01	29.801 
18:10	37.0	37.0	37.0	95	35.7	2	9	45	0.02	29.792 
18:15	36.8	33.6	36.8	95	35.5	4	10	45	0.02	29.797 
18:20	36.8	36.8	36.8	95	35.5	2	9	68	0.01	29.795 
18:25	36.5	36.5	36.5	95	35.2	3	10	90	0.02	29.786 
18:30	36.2	36.2	36.2	95	34.9	3	11	68	0.03	29.788 
18:35	36.0	31.8	36.0	95	34.7	5	11	112	0.03	29.780 
18:40	35.9	32.6	35.9	95	34.6	4	12	112	0.00	29.771 
18:45	35.8	35.8	35.8	95	34.5	3	9	90	0.00	29.775 
18:50	35.6	32.2	35.6	95	34.3	4	13	90	0.01	29.782 
18:55	35.5	32.1	35.5	95	34.2	4	11	68	0.00	29.786 
19:00	35.3	35.3	35.3	95	34.0	3	11	90	0.01	29.776 
19:05	35.2	30.8	35.2	95	33.9	5	11	112	0.01	29.766 
19:10	35.2	31.8	35.2	95	33.9	4	9	90	0.01	29.768 
19:15	35.0	31.5	35.0	95	33.7	4	11	22	0.00	29.776 
19:20	35.0	31.5	35.0	95	33.7	4	10	22	0.00	29.787 
19:25	35.0	35.0	35.0	95	33.7	3	7	112	0.02	29.778 
19:30	34.9	34.9	34.9	95	33.6	3	7	112	0.02	29.782 
19:35	34.9	29.0	34.9	95	33.6	7	15	90	0.01	29.779 
19:40	34.9	34.9	34.9	95	33.6	3	9	90	0.00	29.785 
19:45	34.9	34.9	34.9	95	33.6	3	11	45	0.00	29.790 
19:50	34.9	31.4	34.9	95	33.6	4	10	112	0.02	29.782 
19:55	34.7	34.7	34.7	95	33.4	2	7	112	0.01	29.791 
20:00	34.7	30.2	34.7	95	33.4	5	19	112	0.00	29.781 
20:05	34.6	30.1	34.6	95	33.3	5	15	112	0.02	29.782 
20:10	34.6	34.6	34.6	95	33.3	3	9	22	0.01	29.779 
20:15	34.6	31.1	34.6	95	33.3	4	12	112	0.01	29.791 
20:20	34.6	31.1	34.6	95	33.3	4	14	112	0.01	29.801 
20:25	34.6	34.6	34.6	95	33.3	3	7	68	0.02	29.799 
20:30	34.6	34.6	34.6	95	33.3	2	5	68	0.02	29.821 
20:35	34.7	34.7	34.7	95	33.4	2	6	90	0.01	29.815 
20:40	34.6	31.1	34.6	95	33.3	4	10	112	0.03	29.783 
20:45	34.4	30.8	34.4	95	33.1	4	8	112	0.02	29.790 
20:50	34.4	34.4	34.4	95	33.1	3	9	112	0.01	29.797 
20:55	34.4	34.4	34.4	95	33.1	2	6	112	0.00	29.798 
21:00	34.6	34.6	34.6	95	33.3	1	5	68	0.00	29.830 
21:05	34.6	34.6	34.6	95	33.3	1	4	45	0.01	29.826 
21:10	34.6	34.6	34.6	95	33.3	2	7	90	0.00	29.827 
21:15	34.6	34.6	34.6	95	33.3	2	6	22	0.01	29.828 
21:20	34.4	34.4	34.4	95	33.1	3	10	45	0.01	29.812 
21:25	34.4	30.8	34.4	95	33.1	4	9	112	0.01	29.820 
21:30	34.3	34.3	34.3	95	33.0	2	6	45	0.01	29.831 
21:35	34.3	34.3	34.3	95	33.0	3	7	68	0.02	29.794 
21:40	34.1	30.5	34.1	95	32.8	4	12	112	0.02	29.791 
21:45	34.1	29.5	34.1	95	32.8	5	12	112	0.01	29.800 
21:50	34.1	30.5	34.1	95	32.8	4	14	45	0.01	29.800 
21:55	34.1	30.5	34.1	95	32.8	4	9	22	0.02	29.787 
22:00	34.1	34.1	34.1	95	32.8	2	6	90	0.02	29.804 
22:05	34.0	34.0	34.0	95	32.7	3	9	22	0.02	29.810 
22:10	34.0	34.0	34.0	95	32.7	3	9	45	0.02	29.813 
22:15	34.0	34.0	34.0	95	32.7	3	8	45	0.02	29.802 
22:20	33.8	30.2	33.8	95	32.5	4	11	22	0.02	29.798 
22:25	33.8	33.8	33.8	95	32.5	3	9	135	0.01	29.799 
22:30	33.8	33.8	33.8	95	32.5	3	10	45	0.00	29.809 
22:35	33.8	33.8	33.8	95	32.5	2	9	90	0.01	29.813 
22:40	33.8	33.8	33.8	95	32.5	3	12	112	0.00	29.809 
22:45	33.8	33.8	33.8	95	32.5	3	13	45	0.01	29.799 
22:50	33.8	33.8	33.8	95	32.5	3	7	112	0.01	29.803 
22:55	33.8	33.8	33.8	95	32.5	2	6	22	0.01	29.815 
23:00	33.8	33.8	33.8	94	32.3	2	5	90	0.00	29.824 
23:05	33.8	33.8	33.8	94	32.3	2	6	68	0.00	29.821 
23:10	33.8	33.8	33.8	94	32.3	2	6	112	0.01	29.813 
23:15	33.8	33.8	33.8	94	32.3	3	7	112	0.01	29.812 
23:20	33.7	33.7	33.7	94	32.2	3	7	22	0.00	29.812 
23:25	33.8	33.8	33.8	94	32.3	3	13	45	0.00	29.817 
23:30	33.8	33.8	33.8	94	32.3	2	5	112	0.00	29.819 
23:35	33.7	33.7	33.7	94	32.2	3	6	90	0.00	29.815 
23:40	33.7	33.7	33.7	94	32.2	2	6	22	0.00	29.815 
23:45	33.7	33.7	33.7	94	32.2	3	7	45	0.00	29.814 
23:50	33.7	33.7	33.7	94	32.2	3	8	90	0.01	29.813 
23:55	33.5	33.5	33.5	94	32.0	3	9	45	0.00	29.814 

CoCoRaHS
IN-AL-39
A2 Web Hosting
Creative Commons License
GoDaddy
Look for:

loaded 2017-10-20 19:49:56 • last modified 2010-11-18 10:43:29
Privacy PolicyDisclaimer
• wx.awcolley.com is powered by PmWiki v.2002016 •
• all content (unless otherwise noted) © 2017 A W Colley